Elliot Chaparral Reserve, California Weather observations

Data are for 10 minute period ending at time listed.
 Day   Time   Solar   Ave.   Ave.  Ave.  Vector  Max.   Baro.   Total    
  of    of     Rad.   Air    Rel.  Wind   Wind   Wind  Press.  Precip.   
Year   Day            Temp.  Hum.  Speed  Dir.   Gust                    
2014   (PST)  Kw/m2    F      %     mph   deg.    mph    mb.     in.     
-------------------------------------------------------------------------
 208   15:20   0.61   90.5    38    7.0   314    11.8   984.6    0.00 
 208   15:30   0.64   90.5    39    8.5   302    11.9   984.5    0.00 
 208   15:40   0.59   89.5    42   11.2   288    18.2   984.6    0.00 
 208   15:50   0.51   87.1    47   11.7   300    16.8   984.5    0.00 
 208   16:00   0.48   85.0    51   13.6   302    18.5   984.5    0.00 
 208   16:10   0.18   80.6    57   12.4   307    16.5   984.5    0.00 
 208   16:20   0.10   78.3    61   13.4   310    17.4   984.5    0.00 
 208   16:30   0.11   76.2    66   14.2   309    19.5   984.3    0.00 
 208   16:40   0.10   75.1    69   13.5   308    17.5   984.3    0.00 
 208   16:50   0.08   75.1    68   11.4   309    16.4   984.3    0.00 
 208   17:00   0.08   74.2    67   11.3   300    16.4   984.2    0.00 
 208   17:10   0.10   74.2    67   13.1   303    17.1   984.1    0.00 
 208   17:20   0.07   73.8    67   11.4   292    15.6   984.1    0.00 
 208   17:30   0.06   73.0    64   12.4   295    16.3   984.2    0.00 
 208   17:40   0.08   72.9    72   11.1   281    14.2   984.4    0.00 
 208   17:50   0.11   73.0    71   11.1   316    16.1   984.6    0.00 
 208   18:00   0.07   72.5    65   11.2   320    15.5   984.9    0.00 
 208   18:10   0.06   72.0    66    9.6   311    14.0   985.2    0.00 
 208   18:20   0.04   72.1    65    8.0   314    12.1   985.2    0.00 
 208   18:30   0.02   72.0    66    7.1   322    11.1   985.3    0.00 
 208   18:40   0.01   71.5    68    6.4   299     8.3   985.4    0.00 
 208   18:50   0.00   71.2    69    5.4   286     7.6   985.5    0.00 
 208   19:00   0.00   70.9    70    5.1   275     6.3   985.6    0.00 
 208   19:10   0.00   70.6    70    4.4   287     5.7   985.6    0.00 
 208   19:20   0.00   70.5    71    4.2   283     5.2   985.8    0.00 
 208   19:30   0.00   70.3    71    3.4   293     4.5   985.9    0.00 
 208   19:40   0.00   70.2    72    4.5   273     5.6   986.2    0.00 
 208   19:50   0.00   70.3    71    4.4   246     7.1   986.5    0.00 
 208   20:00   0.00   69.9    74    5.1   235     6.4   986.6    0.00 
 208   20:10   0.00   69.8    73    5.0   258     6.4   986.8    0.00 
 208   20:20   0.00   69.7    74    4.2   273     5.0   986.9    0.00 
 208   20:30   0.00   69.6    76    4.0   269     5.3   987.1    0.00 
 208   20:40   0.00   69.4    76    2.7   261     4.4   987.3    0.00 
 208   20:50   0.00   69.3    76    2.1   231     2.7   987.5    0.00 
 208   21:00   0.00   69.1    76    2.2   243     2.7   987.3    0.00 
 208   21:10   0.00   69.0    77    2.1   287     2.9   987.2    0.00 
 208   21:20   0.00   68.9    78    1.8   261     2.3   987.2    0.00 
 208   21:30   0.00   68.9    79    1.4   253     2.0   987.3    0.00 
 208   21:40   0.00   68.8    79    1.3   235     2.6   987.4    0.00 
 208   21:50   0.00   68.4    78    2.6   178     3.1   987.5    0.00 
 208   22:00   0.00   68.4    79    2.5   192     3.1   987.5    0.00 
 208   22:10   0.00   68.4    79    1.6   196     2.5   987.6    0.00 
 208   22:20   0.00   68.5    79    0.4   299     2.3   987.7    0.00 
 208   22:30   0.00   68.5    80    1.1   349     2.2   987.8    0.00 
 208   22:40   0.00   68.4    80    2.5   343     3.2   987.8    0.00 
 208   22:50   0.00   68.6    80    0.7   351     2.2   987.9    0.00 
 208   23:00   0.00   68.9    79    0.0     0     0.0   987.9    0.00 
 208   23:10   0.00   68.9    79    1.2   105     1.6   988.0    0.00 
 208   23:20   0.00   68.9    78    2.2   149     2.9   988.1    0.00 
 208   23:30   0.00   68.9    78    2.4   134     3.0   988.0    0.00 
 208   23:40   0.00   68.9    77    2.3   160     3.9   987.9    0.00 
 208   23:50   0.00   68.8    77    4.2   164     5.3   988.0    0.00 
 209    0:00   0.00   68.6    77    3.9   164     5.0   988.0    0.00 
 209    0:10   0.00   68.5    76    2.9   178     3.9   988.0    0.00 
 209    0:20   0.00   68.4    76    3.2   194     4.0   987.9    0.00 
 209    0:30   0.00   68.3    77    2.6   193     3.8   987.9    0.00 
 209    0:40   0.00   68.4    77    1.2   235     2.1   988.0    0.00 
 209    0:50   0.00   68.5    77    1.2   234     1.3   988.1    0.00 
 209    1:00   0.00   68.4    77    1.5   207     2.3   988.0    0.00 
 209    1:10   0.00   68.3    78    1.9   224     2.7   988.1    0.00 
 209    1:20   0.00   68.2    78    2.5   232     3.1   988.1    0.00 
 209    1:30   0.00   67.9    78    2.8   265     3.4   988.2    0.00 
 209    1:40   0.00   67.7    80    2.7   266     3.4   988.2    0.00 
 209    1:50   0.00   67.5    81    2.1   240     2.5   988.1    0.00 
 209    2:00   0.00   67.4    81    2.2   252     2.9   988.1    0.00 
 209    2:10   0.00   67.3    83    1.5   245     2.2   988.1    0.00 
 209    2:20   0.00   67.0    84    1.1   257     2.0   988.1    0.00 
 209    2:30   0.00   66.8    84    1.5   223     2.3   988.1    0.00 
 209    2:40   0.00   67.0    87    1.1   223     1.9   988.0    0.00 
 209    2:50   0.00   66.9    88    0.7   307     2.1   988.1    0.00 
 209    3:00   0.00   67.0    88    3.3   329     5.3   988.0    0.00 
 209    3:10   0.00   67.0    88    5.6   336     6.6   988.1    0.00 
 209    3:20   0.00   67.2    89    6.5   350     8.0   988.1    0.00 
 209    3:30   0.00   67.0    90    6.0   340     8.3   988.1    0.00 
 209    3:40   0.00   66.8    90    4.8     6     6.9   988.2    0.00 
 209    3:50   0.00   66.7    90    3.1    18     4.7   988.2    0.00 
 209    4:00   0.00   66.6    90    2.6    20     4.3   988.3    0.00 
 209    4:10   0.00   66.5    90    2.5    22     3.3   988.2    0.00 
 209    4:20   0.00   66.4    90    2.9    38     4.7   988.1    0.00 
 209    4:30   0.00   66.3    90    1.6    42     4.5   988.2    0.00 
 209    4:40   0.00   66.1    90    2.9    80     4.9   988.2    0.00 
 209    4:50   0.00   66.1    90    5.1    62     6.5   988.1    0.00 
 209    5:00   0.00   65.8    89    4.5    73     6.5   988.1    0.00 
 209    5:10   0.00   66.0    79    6.8    47     8.4   988.0    0.00 
 209    5:20   0.00   67.4    73    7.8    74     9.4   988.0    0.00 
 209    5:30   0.01   68.6    73    5.9    78     7.7   988.0    0.00 
 209    5:40   0.01   68.4    74    4.4    76     8.0   988.2    0.00 
 209    5:50   0.02   68.6    74    1.6    67     2.9   988.4    0.00 
 209    6:00   0.04   69.0    74    2.2   133     4.4   988.6    0.00 
 209    6:10   0.09   70.0    74    0.9   148     2.0   988.8    0.00 
 209    6:20   0.14   71.6    70    1.1   195     2.8   988.9    0.00 
 209    6:30   0.17   72.6    68    1.9   108     3.9   988.8    0.00 
 209    6:40   0.13   72.3    69    2.4    71     3.7   988.8    0.00 
 209    6:50   0.22   73.5    66    2.3    54     3.7   988.8    0.00 
 209    7:00   0.30   75.9    62    1.6    70     3.2   988.8    0.00 
 209    7:10   0.33   78.0    58    1.6   247     3.4   989.0    0.00 
 209    7:20   0.39   77.2    60    2.9   301     5.2   989.0    0.00 
 209    7:30   0.42   78.0    58    2.4   328     4.2   989.0    0.00 
 209    7:40   0.45   78.7    57    3.0   284     4.9   988.9    0.00 
 209    7:50   0.48   78.2    58    4.7   297     7.0   988.9    0.00 
 209    8:00   0.51   78.8    58    5.9   318     9.0   988.9    0.00 
 209    8:10   0.54   78.7    59    6.3   317     8.5   989.1    0.00 
 209    8:20   0.57   78.5    59    5.6   297     7.8   989.1    0.00 
 209    8:30   0.60   79.0    57    5.7   270     9.6   989.2    0.00 
 209    8:40   0.63   79.4    54    5.7   244    10.6   989.1    0.00 
 209    8:50   0.65   80.0    52    6.2   248     9.6   989.1    0.00 
 209    9:00   0.68   81.4    47    3.4   253     8.7   989.1    0.00 
 209    9:10   0.71   82.1    46    5.2   289     7.7   989.1    0.00 
 209    9:20   0.73   82.8    40    5.0   264     8.3   989.1    0.00 
 209    9:30   0.76   83.4    37    5.0   264     8.6   989.0    0.00 
 209    9:40   0.78   84.8    36    5.5   295     9.6   988.9    0.00 
 209    9:50   0.81   84.9    32    7.3   319    11.0   988.8    0.00 
 209   10:00   0.83   84.7    32    5.1   311    10.1   988.8    0.00 
 209   10:10   0.84   85.1    33    5.8   307     9.7   988.8    0.00 
 209   10:20   0.86   86.3    33    6.2   297    10.5   988.7    0.00 
 209   10:30   0.87   86.1    32    8.9   281    12.6   988.6    0.00 
 209   10:40   0.85   86.2    32    6.9   318    12.6   988.7    0.00 
 209   10:50   0.89   87.0    30    7.1   297    11.2   988.5    0.00 
 209   11:00   0.90   88.1    29    8.6   302    13.4   988.5    0.00 
 209   11:10   0.91   86.6    32   11.2   283    14.8   988.4    0.00 
 209   11:20   0.92   85.7    32    9.1   291    14.4   988.5    0.00 
 209   11:30   0.93   87.6    28    7.6   288    13.1   988.4    0.00 
 209   11:40   0.93   88.9    26    8.0   287    12.6   988.3    0.00 
 209   11:50   0.93   88.6    24   11.1   286    16.4   988.1    0.00 
 209   12:00   0.90   89.6    20   12.9   284    20.0   988.0    0.00 
 209   12:10   0.93   88.2    22   12.9   283    17.0   988.0    0.00 
 209   12:20   0.93   88.4    20   12.6   289    17.0   988.0    0.00 
 209   12:30   0.93   88.3    22   12.4   290    17.2   987.9    0.00 
 209   12:40   0.92   88.1    24   13.8   284    17.6   987.9    0.00 
 209   12:50   0.91   87.7    21   11.9   312    16.2   987.8    0.00 
 209   13:00   0.82   87.1    19   11.8   311    15.1   987.8    0.00 
 209   13:10   0.89   88.1    17   11.3   300    14.5   987.7    0.00 
 209   13:20   0.88   88.9    20   10.3   296    18.6   987.6    0.00 
 209   13:30   0.86   89.4    20   11.7   288    16.6   987.5    0.00 
 209   13:40   0.85   89.0    22   12.5   288    17.8   987.3    0.00 
 209   13:50   0.83   89.1    23   12.3   289    18.8   987.2    0.00 
 209   14:00   0.81   89.1    20   12.1   313    16.1   987.2    0.00 
 209   14:10   0.80   89.0    21   12.7   304    17.4   987.1    0.00 
 209   14:20   0.77   88.5    24   12.2   292    17.6   987.2    0.00 
 209   14:30   0.74   88.1    27   11.6   306    17.1   987.1    0.00 
 209   14:40   0.70   87.7    32   12.6   287    18.0   986.9    0.00 
 209   14:50   0.69   86.6    35   12.3   306    17.3   986.8    0.00 
 209   15:00   0.66   85.5    40   12.9   304    17.4   986.6    0.00 
 209   15:10   0.64   85.2    45   12.1   304    18.0   986.5    0.00 

Return to Elliot Chaparral Reserve graphs page.


Western Regional Climate Center,wrcc@dri.edu